• Join FlightAware (Why Join?)
  • Login
  • US Flag 
07:23AM EDT


 

Airport Tracker/Info


-or-


 

Live Flight TrackerFlight Track Log ✈ GLA61C ✈ 07-May-2013 ✈ KCEZ - KDEN

Flight Track Log - Related Links

Times and Time Zones

All times are in EDT time to prevent confusion due to time zone crossing. See the GLA61C flight status page for this flight to view local times or setup timezone preferences in your user account.

Time Position Orientation Groundspeed Altitude Reporting Facility
EDT Latitude Longitude Course Direction KTS MPH feet Rate Location/Type
08:05AM 37.3600 -108.5647 48° Northeast 193 222 8,800  Level Denver Center
08:06AM 37.3994 -108.5103 48° Northeast 187 215 11,100 1,980 Climbing Denver Center
08:07AM 37.5963 -108.2154 48° Northeast  Level FlightAware Approximate
08:07AM 37.4358 -108.4633 46° Northeast 191 220 12,900  Level Denver Center
08:08AM 37.6453 -108.1478 48° Northeast  Level FlightAware Approximate
08:08AM 37.4744 -108.4114 47° Northeast 200 230 14,800  Level Denver Center
08:09AM 37.6942 -108.0801 48° Northeast  Level FlightAware Approximate
08:09AM 37.5225 -108.3511 45° Northeast 214 246 16,900  Level Denver Center
08:10AM 37.7432 -108.0123 48° Northeast  Level FlightAware Approximate
08:10AM 37.5672 -108.3008 42° Northeast 222 255 18,300  Level Denver Center
08:11AM 37.6106 -108.2428 47° Northeast 231 266 19,800 1,560 Climbing Denver Center
08:12AM 37.6586 -108.1722 49° Northeast 236 272 21,500 1,380 Climbing Denver Center
08:13AM 37.6967 -108.1047 55° Northeast 243 280 22,700 1,080 Climbing Denver Center
08:14AM 37.7397 -108.0394 50° Northeast 250 288 23,700 900 Climbing Denver Center
08:15AM 37.7806 -107.9697 53° Northeast 256 295 24,600 600 Climbing Denver Center
08:16AM 37.8353 -107.8869 50° Northeast 270 311 25,000 120 Climbing Denver Center
08:17AM 37.8872 -107.8081 50° Northeast 297 342 24,900  Descending Denver Center
08:18AM 37.9428 -107.7331 47° Northeast 306 352 25,000 60 Climbing Denver Center
08:19AM 38.0089 -107.6478 45° Northeast 305 351 25,100  Climbing Denver Center
08:20AM 38.0678 -107.5778 43° Northeast 305 351 25,000 -60 Descending Denver Center
08:21AM 38.1314 -107.4983 44° Northeast 306 352 25,000  Level Denver Center
08:22AM 38.1867 -107.4242 47° Northeast 304 350 25,000  Level Denver Center
08:23AM 38.2464 -107.3319 50° Northeast 302 348 25,000  Level Denver Center
08:24AM 38.2986 -107.2508 51° Northeast 308 354 25,000  Level Denver Center
08:26AM 38.3569 -107.1694 48° Northeast 303 349 25,000  Level Denver Center
08:27AM 38.4278 -107.0792 45° Northeast 299 344 25,000  Level Denver Center
08:28AM 38.4697 -106.9869 60° Northeast 296 341 25,000  Level Denver Center
08:29AM 38.5025 -106.8861 67° East 305 351 25,000  Level Denver Center
08:30AM 38.5308 -106.7831 71° East 307 353 25,000  Level Denver Center
08:31AM 38.5650 -106.6844 66° East 306 352 25,000  Level Denver Center
08:32AM 38.5978 -106.5844 67° East 304 350 25,000 -60 Level Denver Center
08:33AM 38.6294 -106.4817 68° East 309 356 24,900  Descending Denver Center
08:34AM 38.6606 -106.3808 68° East 307 353 25,000 -60 Climbing Denver Center
08:35AM 38.6928 -106.2836 67° East 299 344 24,800 -480 Descending Denver Center
08:36AM 38.7297 -106.1886 63° Northeast 300 345 24,100 -720 Descending Denver Center
08:37AM 38.7772 -106.0958 57° Northeast 300 345 23,400 -900 Descending Denver Center
08:38AM 38.8297 -105.9983 55° Northeast 298 343 22,300 -960 Descending Denver Center
08:39AM 38.8761 -105.9144 55° Northeast 301 346 21,500 -900 Descending Denver Center
08:40AM 38.9272 -105.8314 52° Northeast 296 341 20,500 -1,140 Descending Denver Center
08:41AM 38.9817 -105.7425 52° Northeast 296 341 19,300 -1,440 Descending Denver Center
08:42AM 39.0306 -105.6644 51° Northeast 293 337 17,600 -1,560 Descending Denver Center
08:43AM 39.0758 -105.5867 53° Northeast 286 329 16,200 -840 Descending Denver Center
08:44AM 39.1303 -105.4978 52° Northeast 282 325 16,000 -180 Descending Denver Center
08:45AM 39.1817 -105.4175 50° Northeast 285 328 15,900  Descending Denver Center
08:46AM 39.2281 -105.3403 52° Northeast 274 315 16,000 -540 Climbing Denver Center
08:47AM 39.2761 -105.2628 51° Northeast 277 319 14,900 -960 Descending Denver Center
08:48AM 39.3039 -105.1731 68° East 275 316 14,100 -900 Descending Denver Center
08:49AM 39.3106 -105.0728 85° East 263 303 13,100 -600 Descending Denver Center
08:50AM 39.3169 -104.9969 84° East 273 314 13,000 -60 Descending Denver Center
08:51AM 39.3697 -104.9003 55° Northeast 265 305 13,000 -300 Level Denver Center
08:52AM 39.4108 -104.8233 55° Northeast 262 302 12,400 -540 Descending Denver Center
08:53AM 39.4589 -104.7419 53° Northeast 265 305 12,000 -300 Descending Denver Center
08:54AM 39.4986 -104.6811 50° Northeast 227 261 11,800 -360 Descending Denver Center
08:55AM 39.5539 -104.6622 15° North 212 244 11,300 -1,080 Descending Denver Center
08:56AM 39.6119 -104.6628 360° North 212 244 9,700 -1,320 Descending Denver Center
08:57AM 39.6725 -104.6617 North 201 231 8,700 -1,080 Descending Denver Center
08:58AM 39.7239 -104.6614 360° North 187 215 7,600 -1,020 Descending Denver Center
08:59AM 39.7736 -104.6614 360° North 180 207 6,500 -1,020 Descending Denver Center
09:00AM 39.8286 -104.6611 360° North 161 185 5,400 -1,080 Descending Denver Center
09:02AM 39.8500 -104.6667 346° North  Level FlightAware Approximate
09:09AM 39.8617 -104.6732 346° North  Level Estimated
09:10AM 39.8617 -104.6732 346° North  Level Estimated
09:11AM 39.8617 -104.6732 346° North  Level Estimated